sensor_id;sensor_type;location;lat;lon;timestamp;P1;durP1;ratioP1;P2;durP2;ratioP2
8232;SDS011;4157;48.074;9.952;2023-02-15T00:02:05;16.85;;;15.05;;
8232;SDS011;4157;48.074;9.952;2023-02-15T00:04:32;17.40;;;14.45;;
8232;SDS011;4157;48.074;9.952;2023-02-15T00:07:15;25.13;;;11.98;;
8232;SDS011;4157;48.074;9.952;2023-02-15T00:09:43;25.52;;;13.00;;
8232;SDS011;4157;48.074;9.952;2023-02-15T00:12:12;18.83;;;14.07;;
8232;SDS011;4157;48.074;9.952;2023-02-15T00:14:39;18.48;;;14.63;;
8232;SDS011;4157;48.074;9.952;2023-02-15T00:17:07;19.42;;;13.85;;
8232;SDS011;4157;48.074;9.952;2023-02-15T00:19:35;21.38;;;14.13;;
8232;SDS011;4157;48.074;9.952;2023-02-15T00:22:02;37.83;;;15.68;;
8232;SDS011;4157;48.074;9.952;2023-02-15T00:24:32;29.52;;;10.95;;
8232;SDS011;4157;48.074;9.952;2023-02-15T00:26:59;37.97;;;16.00;;
8232;SDS011;4157;48.074;9.952;2023-02-15T00:29:27;14.50;;;12.80;;
8232;SDS011;4157;48.074;9.952;2023-02-15T00:31:54;13.55;;;9.35;;
8232;SDS011;4157;48.074;9.952;2023-02-15T00:34:24;31.17;;;10.75;;
8232;SDS011;4157;48.074;9.952;2023-02-15T00:36:52;12.65;;;8.57;;
8232;SDS011;4157;48.074;9.952;2023-02-15T00:39:20;26.63;;;12.50;;
8232;SDS011;4157;48.074;9.952;2023-02-15T00:41:50;15.25;;;9.25;;
8232;SDS011;4157;48.074;9.952;2023-02-15T00:44:18;60.58;;;12.23;;
8232;SDS011;4157;48.074;9.952;2023-02-15T00:46:46;15.32;;;9.32;;
8232;SDS011;4157;48.074;9.952;2023-02-15T00:49:13;25.73;;;12.82;;
8232;SDS011;4157;48.074;9.952;2023-02-15T00:51:41;37.38;;;14.38;;
8232;SDS011;4157;48.074;9.952;2023-02-15T00:54:09;24.02;;;9.88;;
8232;SDS011;4157;48.074;9.952;2023-02-15T00:56:36;24.55;;;10.20;;
8232;SDS011;4157;48.074;9.952;2023-02-15T00:59:05;50.50;;;11.70;;
8232;SDS011;4157;48.074;9.952;2023-02-15T01:01:33;21.73;;;9.98;;
8232;SDS011;4157;48.074;9.952;2023-02-15T01:04:01;20.75;;;12.45;;
8232;SDS011;4157;48.074;9.952;2023-02-15T01:06:29;13.00;;;11.60;;
8232;SDS011;4157;48.074;9.952;2023-02-15T01:08:56;15.23;;;11.50;;
8232;SDS011;4157;48.074;9.952;2023-02-15T01:11:24;12.52;;;7.97;;
8232;SDS011;4157;48.074;9.952;2023-02-15T01:13:52;20.52;;;9.57;;
8232;SDS011;4157;48.074;9.952;2023-02-15T01:16:22;12.13;;;8.65;;
8232;SDS011;4157;48.074;9.952;2023-02-15T01:18:50;17.63;;;9.45;;
8232;SDS011;4157;48.074;9.952;2023-02-15T01:21:18;17.15;;;8.88;;
8232;SDS011;4157;48.074;9.952;2023-02-15T01:23:46;14.68;;;11.68;;
8232;SDS011;4157;48.074;9.952;2023-02-15T01:26:14;22.70;;;11.50;;
8232;SDS011;4157;48.074;9.952;2023-02-15T01:28:43;18.30;;;9.27;;
8232;SDS011;4157;48.074;9.952;2023-02-15T01:31:12;15.52;;;10.95;;
8232;SDS011;4157;48.074;9.952;2023-02-15T01:33:41;36.85;;;10.35;;
8232;SDS011;4157;48.074;9.952;2023-02-15T01:36:09;35.92;;;10.43;;
8232;SDS011;4157;48.074;9.952;2023-02-15T01:38:38;36.92;;;10.50;;
8232;SDS011;4157;48.074;9.952;2023-02-15T01:41:06;25.70;;;9.38;;
8232;SDS011;4157;48.074;9.952;2023-02-15T01:43:49;13.80;;;8.88;;
8232;SDS011;4157;48.074;9.952;2023-02-15T01:46:18;48.15;;;12.02;;
8232;SDS011;4157;48.074;9.952;2023-02-15T01:48:50;13.68;;;8.57;;
8232;SDS011;4157;48.074;9.952;2023-02-15T01:51:20;16.10;;;8.60;;
8232;SDS011;4157;48.074;9.952;2023-02-15T01:53:50;16.48;;;9.00;;
8232;SDS011;4157;48.074;9.952;2023-02-15T01:56:19;42.42;;;11.50;;
8232;SDS011;4157;48.074;9.952;2023-02-15T01:58:49;17.60;;;9.50;;
8232;SDS011;4157;48.074;9.952;2023-02-15T02:01:19;40.55;;;13.02;;
8232;SDS011;4157;48.074;9.952;2023-02-15T02:03:50;61.65;;;12.80;;
8232;SDS011;4157;48.074;9.952;2023-02-15T02:06:21;22.05;;;13.48;;
8232;SDS011;4157;48.074;9.952;2023-02-15T02:08:49;17.15;;;9.02;;
8232;SDS011;4157;48.074;9.952;2023-02-15T02:11:17;28.02;;;10.98;;
8232;SDS011;4157;48.074;9.952;2023-02-15T02:13:46;22.98;;;13.55;;
8232;SDS011;4157;48.074;9.952;2023-02-15T02:16:15;34.28;;;11.48;;
8232;SDS011;4157;48.074;9.952;2023-02-15T02:18:46;27.10;;;11.23;;
8232;SDS011;4157;48.074;9.952;2023-02-15T02:21:34;40.55;;;11.07;;
8232;SDS011;4157;48.074;9.952;2023-02-15T02:24:13;35.22;;;12.10;;
8232;SDS011;4157;48.074;9.952;2023-02-15T02:27:02;40.65;;;10.88;;
8232;SDS011;4157;48.074;9.952;2023-02-15T02:29:37;31.00;;;12.88;;
8232;SDS011;4157;48.074;9.952;2023-02-15T02:32:28;44.33;;;13.77;;
8232;SDS011;4157;48.074;9.952;2023-02-15T02:35:07;22.33;;;11.07;;
8232;SDS011;4157;48.074;9.952;2023-02-15T02:37:37;32.72;;;10.80;;
8232;SDS011;4157;48.074;9.952;2023-02-15T02:40:11;16.13;;;9.73;;
8232;SDS011;4157;48.074;9.952;2023-02-15T02:42:41;21.38;;;10.32;;
8232;SDS011;4157;48.074;9.952;2023-02-15T02:45:09;14.80;;;9.60;;
8232;SDS011;4157;48.074;9.952;2023-02-15T02:47:40;82.10;;;12.85;;
8232;SDS011;4157;48.074;9.952;2023-02-15T02:50:13;15.27;;;9.75;;
8232;SDS011;4157;48.074;9.952;2023-02-15T02:52:42;21.50;;;10.63;;
8232;SDS011;4157;48.074;9.952;2023-02-15T02:55:12;13.50;;;8.23;;
8232;SDS011;4157;48.074;9.952;2023-02-15T02:57:42;30.70;;;11.70;;
8232;SDS011;4157;48.074;9.952;2023-02-15T03:00:11;17.92;;;10.82;;
8232;SDS011;4157;48.074;9.952;2023-02-15T03:02:39;14.02;;;11.57;;
8232;SDS011;4157;48.074;9.952;2023-02-15T03:05:09;14.38;;;8.95;;
8232;SDS011;4157;48.074;9.952;2023-02-15T03:07:40;17.90;;;10.10;;
8232;SDS011;4157;48.074;9.952;2023-02-15T03:10:09;20.90;;;14.60;;
8232;SDS011;4157;48.074;9.952;2023-02-15T03:12:37;29.45;;;11.63;;
8232;SDS011;4157;48.074;9.952;2023-02-15T03:15:09;17.25;;;11.02;;
8232;SDS011;4157;48.074;9.952;2023-02-15T03:17:39;26.48;;;11.95;;
8232;SDS011;4157;48.074;9.952;2023-02-15T03:20:09;23.02;;;11.98;;
8232;SDS011;4157;48.074;9.952;2023-02-15T03:22:38;42.30;;;16.80;;
8232;SDS011;4157;48.074;9.952;2023-02-15T03:25:12;33.50;;;11.23;;
8232;SDS011;4157;48.074;9.952;2023-02-15T03:27:43;24.75;;;11.30;;
8232;SDS011;4157;48.074;9.952;2023-02-15T03:30:11;24.58;;;12.68;;
8232;SDS011;4157;48.074;9.952;2023-02-15T03:32:40;25.48;;;13.02;;
8232;SDS011;4157;48.074;9.952;2023-02-15T03:35:10;24.85;;;13.02;;
8232;SDS011;4157;48.074;9.952;2023-02-15T03:37:39;27.00;;;13.65;;
8232;SDS011;4157;48.074;9.952;2023-02-15T03:40:09;26.92;;;13.88;;
8232;SDS011;4157;48.074;9.952;2023-02-15T03:42:59;17.50;;;10.32;;
8232;SDS011;4157;48.074;9.952;2023-02-15T03:45:29;24.52;;;11.23;;
8232;SDS011;4157;48.074;9.952;2023-02-15T03:47:58;28.13;;;13.02;;
8232;SDS011;4157;48.074;9.952;2023-02-15T03:50:27;33.80;;;13.00;;
8232;SDS011;4157;48.074;9.952;2023-02-15T03:53:15;24.45;;;12.25;;
8232;SDS011;4157;48.074;9.952;2023-02-15T03:55:46;22.45;;;11.77;;
8232;SDS011;4157;48.074;9.952;2023-02-15T03:58:15;23.60;;;12.75;;
8232;SDS011;4157;48.074;9.952;2023-02-15T04:01:03;30.83;;;14.85;;
8232;SDS011;4157;48.074;9.952;2023-02-15T04:03:49;26.65;;;12.13;;
8232;SDS011;4157;48.074;9.952;2023-02-15T04:06:19;17.85;;;10.10;;
8232;SDS011;4157;48.074;9.952;2023-02-15T04:08:46;32.13;;;11.55;;
8232;SDS011;4157;48.074;9.952;2023-02-15T04:11:31;35.60;;;11.65;;
8232;SDS011;4157;48.074;9.952;2023-02-15T04:14:00;15.43;;;9.65;;
8232;SDS011;4157;48.074;9.952;2023-02-15T04:16:48;54.70;;;10.85;;
8232;SDS011;4157;48.074;9.952;2023-02-15T04:19:15;24.48;;;10.38;;
8232;SDS011;4157;48.074;9.952;2023-02-15T04:22:00;20.23;;;9.77;;
8232;SDS011;4157;48.074;9.952;2023-02-15T04:24:46;17.75;;;9.50;;
8232;SDS011;4157;48.074;9.952;2023-02-15T04:27:31;16.92;;;8.18;;
8232;SDS011;4157;48.074;9.952;2023-02-15T04:30:00;14.15;;;8.50;;
8232;SDS011;4157;48.074;9.952;2023-02-15T04:32:28;17.15;;;9.40;;
8232;SDS011;4157;48.074;9.952;2023-02-15T04:34:56;15.90;;;10.05;;
8232;SDS011;4157;48.074;9.952;2023-02-15T04:37:24;14.15;;;9.15;;
8232;SDS011;4157;48.074;9.952;2023-02-15T04:39:51;14.43;;;8.65;;
8232;SDS011;4157;48.074;9.952;2023-02-15T04:42:19;13.43;;;8.07;;
8232;SDS011;4157;48.074;9.952;2023-02-15T04:44:47;14.30;;;9.10;;
8232;SDS011;4157;48.074;9.952;2023-02-15T04:47:16;12.45;;;8.27;;
8232;SDS011;4157;48.074;9.952;2023-02-15T04:49:43;13.40;;;8.73;;
8232;SDS011;4157;48.074;9.952;2023-02-15T04:52:11;14.93;;;7.93;;
8232;SDS011;4157;48.074;9.952;2023-02-15T04:54:38;13.15;;;8.95;;
8232;SDS011;4157;48.074;9.952;2023-02-15T04:57:06;12.52;;;8.65;;
8232;SDS011;4157;48.074;9.952;2023-02-15T04:59:34;13.20;;;9.07;;
8232;SDS011;4157;48.074;9.952;2023-02-15T05:02:01;15.52;;;9.75;;
8232;SDS011;4157;48.074;9.952;2023-02-15T05:04:30;14.43;;;8.35;;
8232;SDS011;4157;48.074;9.952;2023-02-15T05:06:58;13.43;;;9.43;;
8232;SDS011;4157;48.074;9.952;2023-02-15T05:09:26;14.93;;;9.40;;
8232;SDS011;4157;48.074;9.952;2023-02-15T05:11:53;13.23;;;8.57;;
8232;SDS011;4157;48.074;9.952;2023-02-15T05:14:21;15.07;;;9.63;;
8232;SDS011;4157;48.074;9.952;2023-02-15T05:16:48;19.98;;;12.93;;
8232;SDS011;4157;48.074;9.952;2023-02-15T05:19:16;23.38;;;14.88;;
8232;SDS011;4157;48.074;9.952;2023-02-15T05:21:45;17.55;;;11.32;;
8232;SDS011;4157;48.074;9.952;2023-02-15T05:24:13;19.13;;;12.32;;
8232;SDS011;4157;48.074;9.952;2023-02-15T05:27:00;16.58;;;10.48;;
8232;SDS011;4157;48.074;9.952;2023-02-15T05:29:46;20.27;;;11.30;;
8232;SDS011;4157;48.074;9.952;2023-02-15T05:32:14;17.90;;;12.27;;
8232;SDS011;4157;48.074;9.952;2023-02-15T05:34:41;15.30;;;10.07;;
8232;SDS011;4157;48.074;9.952;2023-02-15T05:37:10;14.65;;;9.15;;
8232;SDS011;4157;48.074;9.952;2023-02-15T05:39:38;15.07;;;9.55;;
8232;SDS011;4157;48.074;9.952;2023-02-15T05:42:05;18.30;;;10.65;;
8232;SDS011;4157;48.074;9.952;2023-02-15T05:44:33;14.68;;;9.95;;
8232;SDS011;4157;48.074;9.952;2023-02-15T05:47:01;16.52;;;9.95;;
8232;SDS011;4157;48.074;9.952;2023-02-15T05:49:28;15.98;;;9.68;;
8232;SDS011;4157;48.074;9.952;2023-02-15T05:51:56;15.13;;;9.32;;
8232;SDS011;4157;48.074;9.952;2023-02-15T05:54:25;15.27;;;10.40;;
8232;SDS011;4157;48.074;9.952;2023-02-15T05:56:53;15.75;;;10.00;;
8232;SDS011;4157;48.074;9.952;2023-02-15T05:59:21;15.77;;;9.50;;
8232;SDS011;4157;48.074;9.952;2023-02-15T06:01:48;17.75;;;10.48;;
8232;SDS011;4157;48.074;9.952;2023-02-15T06:04:16;15.77;;;10.52;;
8232;SDS011;4157;48.074;9.952;2023-02-15T06:06:44;15.95;;;10.07;;
8232;SDS011;4157;48.074;9.952;2023-02-15T06:09:11;16.88;;;10.80;;
8232;SDS011;4157;48.074;9.952;2023-02-15T06:11:40;19.05;;;10.85;;
8232;SDS011;4157;48.074;9.952;2023-02-15T06:14:08;19.13;;;12.68;;
8232;SDS011;4157;48.074;9.952;2023-02-15T06:16:36;19.40;;;12.02;;
8232;SDS011;4157;48.074;9.952;2023-02-15T06:19:03;22.05;;;14.48;;
8232;SDS011;4157;48.074;9.952;2023-02-15T06:21:31;19.98;;;12.52;;
8232;SDS011;4157;48.074;9.952;2023-02-15T06:23:59;21.25;;;13.35;;
8232;SDS011;4157;48.074;9.952;2023-02-15T06:26:26;27.50;;;13.13;;
8232;SDS011;4157;48.074;9.952;2023-02-15T06:28:55;26.10;;;12.07;;
8232;SDS011;4157;48.074;9.952;2023-02-15T06:31:23;21.50;;;11.88;;
8232;SDS011;4157;48.074;9.952;2023-02-15T06:33:51;23.95;;;12.43;;
8232;SDS011;4157;48.074;9.952;2023-02-15T06:36:26;22.48;;;12.43;;
8232;SDS011;4157;48.074;9.952;2023-02-15T06:38:54;20.55;;;12.55;;
8232;SDS011;4157;48.074;9.952;2023-02-15T06:41:21;21.73;;;12.35;;
8232;SDS011;4157;48.074;9.952;2023-02-15T06:43:49;20.85;;;12.38;;
8232;SDS011;4157;48.074;9.952;2023-02-15T06:46:18;19.25;;;11.40;;
8232;SDS011;4157;48.074;9.952;2023-02-15T06:48:46;24.85;;;14.68;;
8232;SDS011;4157;48.074;9.952;2023-02-15T06:51:14;23.70;;;13.75;;
8232;SDS011;4157;48.074;9.952;2023-02-15T06:53:41;26.42;;;15.80;;
8232;SDS011;4157;48.074;9.952;2023-02-15T06:56:10;22.98;;;15.05;;
8232;SDS011;4157;48.074;9.952;2023-02-15T06:58:39;18.75;;;11.32;;
8232;SDS011;4157;48.074;9.952;2023-02-15T07:01:07;20.55;;;11.65;;
8232;SDS011;4157;48.074;9.952;2023-02-15T07:03:37;17.95;;;11.48;;
8232;SDS011;4157;48.074;9.952;2023-02-15T07:06:05;21.75;;;11.40;;
8232;SDS011;4157;48.074;9.952;2023-02-15T07:08:34;18.45;;;10.82;;
8232;SDS011;4157;48.074;9.952;2023-02-15T07:11:01;22.13;;;11.43;;
8232;SDS011;4157;48.074;9.952;2023-02-15T07:13:43;20.27;;;12.85;;
8232;SDS011;4157;48.074;9.952;2023-02-15T07:16:11;19.73;;;11.90;;
8232;SDS011;4157;48.074;9.952;2023-02-15T07:18:40;18.38;;;10.88;;
8232;SDS011;4157;48.074;9.952;2023-02-15T07:21:08;20.13;;;11.73;;
8232;SDS011;4157;48.074;9.952;2023-02-15T07:23:35;18.23;;;10.30;;
8232;SDS011;4157;48.074;9.952;2023-02-15T07:26:03;18.10;;;11.25;;
8232;SDS011;4157;48.074;9.952;2023-02-15T07:28:31;19.75;;;12.05;;
8232;SDS011;4157;48.074;9.952;2023-02-15T07:31:00;20.48;;;12.05;;
8232;SDS011;4157;48.074;9.952;2023-02-15T07:33:29;20.20;;;12.13;;
8232;SDS011;4157;48.074;9.952;2023-02-15T07:35:59;18.90;;;12.30;;
8232;SDS011;4157;48.074;9.952;2023-02-15T07:38:27;19.88;;;10.90;;
8232;SDS011;4157;48.074;9.952;2023-02-15T07:40:57;19.40;;;11.75;;
8232;SDS011;4157;48.074;9.952;2023-02-15T07:43:25;17.73;;;11.30;;
8232;SDS011;4157;48.074;9.952;2023-02-15T07:45:53;18.33;;;10.88;;
8232;SDS011;4157;48.074;9.952;2023-02-15T07:48:20;16.90;;;10.65;;
8232;SDS011;4157;48.074;9.952;2023-02-15T07:50:48;18.98;;;11.75;;
8232;SDS011;4157;48.074;9.952;2023-02-15T07:53:17;20.60;;;11.88;;
8232;SDS011;4157;48.074;9.952;2023-02-15T07:55:45;19.38;;;11.02;;
8232;SDS011;4157;48.074;9.952;2023-02-15T07:58:12;19.23;;;11.88;;
8232;SDS011;4157;48.074;9.952;2023-02-15T08:00:40;17.63;;;11.90;;
8232;SDS011;4157;48.074;9.952;2023-02-15T08:03:34;19.63;;;12.02;;
8232;SDS011;4157;48.074;9.952;2023-02-15T08:06:02;22.33;;;12.80;;
8232;SDS011;4157;48.074;9.952;2023-02-15T08:08:30;20.83;;;12.40;;
8232;SDS011;4157;48.074;9.952;2023-02-15T08:10:58;19.98;;;11.98;;
8232;SDS011;4157;48.074;9.952;2023-02-15T08:13:44;22.35;;;13.23;;
8232;SDS011;4157;48.074;9.952;2023-02-15T08:16:21;22.92;;;13.15;;
8232;SDS011;4157;48.074;9.952;2023-02-15T08:18:50;23.23;;;13.65;;
8232;SDS011;4157;48.074;9.952;2023-02-15T08:21:18;22.92;;;13.70;;
8232;SDS011;4157;48.074;9.952;2023-02-15T08:23:46;21.98;;;13.63;;
8232;SDS011;4157;48.074;9.952;2023-02-15T08:26:14;20.85;;;12.32;;
8232;SDS011;4157;48.074;9.952;2023-02-15T08:28:42;22.15;;;13.25;;
8232;SDS011;4157;48.074;9.952;2023-02-15T08:31:10;21.63;;;13.23;;
8232;SDS011;4157;48.074;9.952;2023-02-15T08:33:39;24.05;;;13.50;;
8232;SDS011;4157;48.074;9.952;2023-02-15T08:36:09;23.92;;;12.45;;
8232;SDS011;4157;48.074;9.952;2023-02-15T08:38:37;23.02;;;13.68;;
8232;SDS011;4157;48.074;9.952;2023-02-15T08:41:09;20.73;;;12.68;;
8232;SDS011;4157;48.074;9.952;2023-02-15T08:43:37;21.00;;;13.32;;
8232;SDS011;4157;48.074;9.952;2023-02-15T08:46:05;20.05;;;12.65;;
8232;SDS011;4157;48.074;9.952;2023-02-15T08:48:32;22.17;;;14.23;;
8232;SDS011;4157;48.074;9.952;2023-02-15T08:51:04;19.52;;;11.98;;
8232;SDS011;4157;48.074;9.952;2023-02-15T08:53:33;20.80;;;12.45;;
8232;SDS011;4157;48.074;9.952;2023-02-15T08:56:01;22.65;;;13.77;;
8232;SDS011;4157;48.074;9.952;2023-02-15T08:58:30;27.70;;;15.32;;
8232;SDS011;4157;48.074;9.952;2023-02-15T09:00:58;24.42;;;13.23;;
8232;SDS011;4157;48.074;9.952;2023-02-15T09:03:27;23.58;;;13.02;;
8232;SDS011;4157;48.074;9.952;2023-02-15T09:05:58;23.33;;;14.30;;
8232;SDS011;4157;48.074;9.952;2023-02-15T09:08:26;21.38;;;13.38;;
8232;SDS011;4157;48.074;9.952;2023-02-15T09:11:03;24.38;;;14.65;;
8232;SDS011;4157;48.074;9.952;2023-02-15T09:13:31;24.85;;;14.63;;
8232;SDS011;4157;48.074;9.952;2023-02-15T09:16:00;27.85;;;16.45;;
8232;SDS011;4157;48.074;9.952;2023-02-15T09:18:28;22.75;;;15.13;;
8232;SDS011;4157;48.074;9.952;2023-02-15T09:20:56;20.77;;;17.95;;
8232;SDS011;4157;48.074;9.952;2023-02-15T09:23:24;20.92;;;16.98;;
8232;SDS011;4157;48.074;9.952;2023-02-15T09:25:52;20.38;;;12.70;;
8232;SDS011;4157;48.074;9.952;2023-02-15T09:28:21;22.45;;;13.98;;
8232;SDS011;4157;48.074;9.952;2023-02-15T09:30:48;21.20;;;17.88;;
8232;SDS011;4157;48.074;9.952;2023-02-15T09:33:16;22.05;;;17.55;;
8232;SDS011;4157;48.074;9.952;2023-02-15T09:35:43;21.85;;;18.85;;
8232;SDS011;4157;48.074;9.952;2023-02-15T09:38:11;22.33;;;18.05;;
8232;SDS011;4157;48.074;9.952;2023-02-15T09:40:41;19.83;;;16.67;;
8232;SDS011;4157;48.074;9.952;2023-02-15T09:43:13;21.42;;;17.95;;
8232;SDS011;4157;48.074;9.952;2023-02-15T09:45:53;21.63;;;18.67;;
8232;SDS011;4157;48.074;9.952;2023-02-15T09:51:20;22.38;;;17.80;;
8232;SDS011;4157;48.074;9.952;2023-02-15T09:54:07;20.58;;;17.60;;
8232;SDS011;4157;48.074;9.952;2023-02-15T09:56:37;20.63;;;16.48;;
8232;SDS011;4157;48.074;9.952;2023-02-15T09:59:09;19.55;;;16.30;;
8232;SDS011;4157;48.074;9.952;2023-02-15T10:01:45;26.23;;;17.73;;
8232;SDS011;4157;48.074;9.952;2023-02-15T10:04:22;20.25;;;16.25;;
8232;SDS011;4157;48.074;9.952;2023-02-15T10:06:54;19.00;;;15.02;;
8232;SDS011;4157;48.074;9.952;2023-02-15T10:09:29;18.90;;;14.63;;
8232;SDS011;4157;48.074;9.952;2023-02-15T10:12:02;20.70;;;14.95;;
8232;SDS011;4157;48.074;9.952;2023-02-15T10:14:41;18.98;;;13.93;;
8232;SDS011;4157;48.074;9.952;2023-02-15T10:17:19;16.58;;;13.88;;
8232;SDS011;4157;48.074;9.952;2023-02-15T10:19:55;19.45;;;14.60;;
8232;SDS011;4157;48.074;9.952;2023-02-15T10:22:33;19.55;;;12.82;;
8232;SDS011;4157;48.074;9.952;2023-02-15T10:25:13;19.15;;;13.07;;
8232;SDS011;4157;48.074;9.952;2023-02-15T10:27:45;18.48;;;13.52;;
8232;SDS011;4157;48.074;9.952;2023-02-15T10:30:13;19.85;;;13.70;;
8232;SDS011;4157;48.074;9.952;2023-02-15T10:32:45;17.73;;;13.07;;
8232;SDS011;4157;48.074;9.952;2023-02-15T10:35:19;17.15;;;12.18;;
8232;SDS011;4157;48.074;9.952;2023-02-15T10:37:49;19.83;;;13.13;;
8232;SDS011;4157;48.074;9.952;2023-02-15T10:40:22;19.48;;;11.43;;
8232;SDS011;4157;48.074;9.952;2023-02-15T10:42:56;16.17;;;11.27;;
8232;SDS011;4157;48.074;9.952;2023-02-15T10:45:31;14.77;;;10.63;;
8232;SDS011;4157;48.074;9.952;2023-02-15T10:48:24;16.48;;;10.43;;
8232;SDS011;4157;48.074;9.952;2023-02-15T10:50:57;16.40;;;10.43;;
8232;SDS011;4157;48.074;9.952;2023-02-15T10:53:30;17.02;;;10.48;;
8232;SDS011;4157;48.074;9.952;2023-02-15T10:56:04;19.25;;;10.50;;
8232;SDS011;4157;48.074;9.952;2023-02-15T10:58:38;17.35;;;10.75;;
8232;SDS011;4157;48.074;9.952;2023-02-15T11:01:16;14.73;;;10.40;;
8232;SDS011;4157;48.074;9.952;2023-02-15T11:03:51;15.02;;;9.82;;
8232;SDS011;4157;48.074;9.952;2023-02-15T11:06:22;15.77;;;9.88;;
8232;SDS011;4157;48.074;9.952;2023-02-15T11:08:50;14.65;;;10.40;;
8232;SDS011;4157;48.074;9.952;2023-02-15T11:11:20;18.23;;;11.35;;
8232;SDS011;4157;48.074;9.952;2023-02-15T11:13:50;15.95;;;11.35;;
8232;SDS011;4157;48.074;9.952;2023-02-15T11:16:19;19.65;;;12.27;;
8232;SDS011;4157;48.074;9.952;2023-02-15T11:18:48;15.25;;;11.20;;
8232;SDS011;4157;48.074;9.952;2023-02-15T11:21:21;19.05;;;12.35;;
8232;SDS011;4157;48.074;9.952;2023-02-15T11:23:49;22.10;;;13.50;;
8232;SDS011;4157;48.074;9.952;2023-02-15T11:26:19;17.98;;;12.02;;
8232;SDS011;4157;48.074;9.952;2023-02-15T11:28:49;20.83;;;12.20;;
8232;SDS011;4157;48.074;9.952;2023-02-15T11:31:20;20.17;;;13.88;;
8232;SDS011;4157;48.074;9.952;2023-02-15T11:33:49;18.52;;;13.70;;
8232;SDS011;4157;48.074;9.952;2023-02-15T11:36:21;16.15;;;11.07;;
8232;SDS011;4157;48.074;9.952;2023-02-15T11:38:51;16.23;;;11.63;;
8232;SDS011;4157;48.074;9.952;2023-02-15T11:41:20;18.08;;;11.77;;
8232;SDS011;4157;48.074;9.952;2023-02-15T11:43:50;17.75;;;12.05;;
8232;SDS011;4157;48.074;9.952;2023-02-15T11:46:21;19.60;;;12.80;;
8232;SDS011;4157;48.074;9.952;2023-02-15T11:48:49;17.77;;;12.95;;
8232;SDS011;4157;48.074;9.952;2023-02-15T11:51:17;19.48;;;13.50;;
8232;SDS011;4157;48.074;9.952;2023-02-15T11:53:47;18.27;;;12.30;;
8232;SDS011;4157;48.074;9.952;2023-02-15T11:56:15;17.85;;;12.65;;
8232;SDS011;4157;48.074;9.952;2023-02-15T11:58:44;17.85;;;13.02;;
8232;SDS011;4157;48.074;9.952;2023-02-15T12:01:14;17.30;;;12.27;;
8232;SDS011;4157;48.074;9.952;2023-02-15T12:03:43;16.05;;;11.00;;
8232;SDS011;4157;48.074;9.952;2023-02-15T12:06:14;18.30;;;12.13;;
8232;SDS011;4157;48.074;9.952;2023-02-15T12:08:45;17.38;;;12.48;;
8232;SDS011;4157;48.074;9.952;2023-02-15T12:11:19;21.00;;;11.90;;
8232;SDS011;4157;48.074;9.952;2023-02-15T12:13:53;19.55;;;12.75;;
8232;SDS011;4157;48.074;9.952;2023-02-15T12:18:49;17.05;;;11.55;;
8232;SDS011;4157;48.074;9.952;2023-02-15T12:21:23;18.98;;;11.75;;
8232;SDS011;4157;48.074;9.952;2023-02-15T12:23:53;18.65;;;12.88;;
8232;SDS011;4157;48.074;9.952;2023-02-15T12:26:26;17.67;;;11.80;;
8232;SDS011;4157;48.074;9.952;2023-02-15T12:28:55;20.38;;;14.57;;
8232;SDS011;4157;48.074;9.952;2023-02-15T12:31:26;24.58;;;15.25;;
8232;SDS011;4157;48.074;9.952;2023-02-15T12:33:55;28.42;;;19.67;;
8232;SDS011;4157;48.074;9.952;2023-02-15T12:36:24;18.35;;;12.73;;
8232;SDS011;4157;48.074;9.952;2023-02-15T12:39:03;25.83;;;19.25;;
8232;SDS011;4157;48.074;9.952;2023-02-15T12:41:33;17.65;;;13.45;;
8232;SDS011;4157;48.074;9.952;2023-02-15T12:44:05;24.52;;;15.25;;
8232;SDS011;4157;48.074;9.952;2023-02-15T12:46:33;21.27;;;12.38;;
8232;SDS011;4157;48.074;9.952;2023-02-15T12:49:04;17.67;;;11.82;;
8232;SDS011;4157;48.074;9.952;2023-02-15T12:51:42;19.50;;;13.00;;
8232;SDS011;4157;48.074;9.952;2023-02-15T12:54:15;19.92;;;12.63;;
8232;SDS011;4157;48.074;9.952;2023-02-15T12:56:45;19.20;;;12.77;;
8232;SDS011;4157;48.074;9.952;2023-02-15T12:59:12;24.88;;;21.98;;
8232;SDS011;4157;48.074;9.952;2023-02-15T13:01:41;20.70;;;14.65;;
8232;SDS011;4157;48.074;9.952;2023-02-15T13:04:14;18.05;;;12.20;;
8232;SDS011;4157;48.074;9.952;2023-02-15T13:06:46;17.83;;;12.23;;
8232;SDS011;4157;48.074;9.952;2023-02-15T13:09:14;20.42;;;13.80;;
8232;SDS011;4157;48.074;9.952;2023-02-15T13:11:45;26.13;;;12.85;;
8232;SDS011;4157;48.074;9.952;2023-02-15T13:14:17;19.83;;;12.57;;
8232;SDS011;4157;48.074;9.952;2023-02-15T13:16:45;19.63;;;12.40;;
8232;SDS011;4157;48.074;9.952;2023-02-15T13:19:15;19.98;;;13.20;;
8232;SDS011;4157;48.074;9.952;2023-02-15T13:21:44;19.48;;;12.48;;
8232;SDS011;4157;48.074;9.952;2023-02-15T13:24:15;25.80;;;17.80;;
8232;SDS011;4157;48.074;9.952;2023-02-15T13:26:46;18.67;;;12.27;;
8232;SDS011;4157;48.074;9.952;2023-02-15T13:29:16;15.43;;;11.07;;
8232;SDS011;4157;48.074;9.952;2023-02-15T13:31:44;17.83;;;11.55;;
8232;SDS011;4157;48.074;9.952;2023-02-15T13:34:14;19.88;;;11.63;;
8232;SDS011;4157;48.074;9.952;2023-02-15T13:36:47;17.00;;;11.80;;
8232;SDS011;4157;48.074;9.952;2023-02-15T13:39:20;20.23;;;12.40;;
8232;SDS011;4157;48.074;9.952;2023-02-15T13:41:53;19.60;;;13.15;;
8232;SDS011;4157;48.074;9.952;2023-02-15T13:44:26;17.48;;;11.45;;
8232;SDS011;4157;48.074;9.952;2023-02-15T13:46:58;17.20;;;11.93;;
8232;SDS011;4157;48.074;9.952;2023-02-15T13:49:36;17.33;;;11.90;;
8232;SDS011;4157;48.074;9.952;2023-02-15T13:52:08;19.00;;;13.73;;
8232;SDS011;4157;48.074;9.952;2023-02-15T13:54:44;17.60;;;10.93;;
8232;SDS011;4157;48.074;9.952;2023-02-15T13:57:24;16.67;;;12.18;;
8232;SDS011;4157;48.074;9.952;2023-02-15T13:59:57;15.00;;;10.70;;
8232;SDS011;4157;48.074;9.952;2023-02-15T14:02:30;17.55;;;11.35;;
8232;SDS011;4157;48.074;9.952;2023-02-15T14:05:06;16.15;;;11.05;;
8232;SDS011;4157;48.074;9.952;2023-02-15T14:07:43;16.38;;;10.15;;
8232;SDS011;4157;48.074;9.952;2023-02-15T14:10:21;15.23;;;9.90;;
8232;SDS011;4157;48.074;9.952;2023-02-15T14:12:58;14.90;;;9.75;;
8232;SDS011;4157;48.074;9.952;2023-02-15T14:15:32;16.30;;;11.00;;
8232;SDS011;4157;48.074;9.952;2023-02-15T14:18:06;17.55;;;12.00;;
8232;SDS011;4157;48.074;9.952;2023-02-15T14:20:39;15.77;;;11.32;;
8232;SDS011;4157;48.074;9.952;2023-02-15T14:25:38;16.17;;;10.07;;
8232;SDS011;4157;48.074;9.952;2023-02-15T14:28:11;15.45;;;10.10;;
8232;SDS011;4157;48.074;9.952;2023-02-15T14:30:42;17.88;;;10.30;;
8232;SDS011;4157;48.074;9.952;2023-02-15T14:33:21;18.10;;;11.00;;
8232;SDS011;4157;48.074;9.952;2023-02-15T14:35:52;19.13;;;11.35;;
8232;SDS011;4157;48.074;9.952;2023-02-15T14:38:24;14.73;;;10.10;;
8232;SDS011;4157;48.074;9.952;2023-02-15T14:40:54;15.45;;;9.50;;
8232;SDS011;4157;48.074;9.952;2023-02-15T14:43:29;16.60;;;10.35;;
8232;SDS011;4157;48.074;9.952;2023-02-15T14:46:00;16.30;;;10.23;;
8232;SDS011;4157;48.074;9.952;2023-02-15T14:48:31;17.10;;;10.02;;
8232;SDS011;4157;48.074;9.952;2023-02-15T14:50:59;15.05;;;10.13;;
8232;SDS011;4157;48.074;9.952;2023-02-15T14:56:22;18.02;;;10.48;;
8232;SDS011;4157;48.074;9.952;2023-02-15T14:59:12;15.82;;;10.52;;
8232;SDS011;4157;48.074;9.952;2023-02-15T15:01:41;16.38;;;10.35;;
8232;SDS011;4157;48.074;9.952;2023-02-15T15:04:21;19.05;;;10.70;;
8232;SDS011;4157;48.074;9.952;2023-02-15T15:06:57;16.13;;;9.85;;
8232;SDS011;4157;48.074;9.952;2023-02-15T15:09:26;16.38;;;9.90;;
8232;SDS011;4157;48.074;9.952;2023-02-15T15:11:55;17.08;;;10.38;;
8232;SDS011;4157;48.074;9.952;2023-02-15T15:14:41;19.92;;;10.98;;
8232;SDS011;4157;48.074;9.952;2023-02-15T15:17:10;16.67;;;10.55;;
8232;SDS011;4157;48.074;9.952;2023-02-15T15:22:33;15.45;;;9.95;;
8232;SDS011;4157;48.074;9.952;2023-02-15T15:25:01;18.17;;;11.18;;
8232;SDS011;4157;48.074;9.952;2023-02-15T15:27:46;16.55;;;10.32;;